createdAt,value
2022-07-28T00:01:45.813Z,39.95
2022-07-28T00:04:15.121Z,39.63
2022-07-28T00:06:44.128Z,39.71
2022-07-28T00:09:12.963Z,39.50
2022-07-28T00:11:50.268Z,39.59
2022-07-28T00:14:23.912Z,39.47
2022-07-28T00:16:54.248Z,39.87
2022-07-28T00:19:23.297Z,39.92
2022-07-28T00:21:52.040Z,40.15
2022-07-28T00:24:20.851Z,40.02
2022-07-28T00:26:49.581Z,39.78
2022-07-28T00:29:18.592Z,39.92
2022-07-28T00:31:47.463Z,40.04
2022-07-28T00:34:18.283Z,40.27
2022-07-28T00:36:47.167Z,40.43
2022-07-28T00:39:16.448Z,40.52
2022-07-28T00:41:45.473Z,40.56
2022-07-28T00:44:14.646Z,40.44
2022-07-28T00:46:43.696Z,40.39
2022-07-28T00:49:12.930Z,40.55
2022-07-28T00:51:43.261Z,40.54
2022-07-28T00:54:12.452Z,40.53
2022-07-28T00:56:42.607Z,40.83
2022-07-28T00:59:11.561Z,40.65
2022-07-28T01:01:40.633Z,40.37
2022-07-28T01:04:09.922Z,39.88
2022-07-28T01:07:08.035Z,40.05
2022-07-28T01:09:49.972Z,39.98
2022-07-28T01:12:30.503Z,40.18
2022-07-28T01:15:08.997Z,40.22
2022-07-28T01:17:46.523Z,40.17
2022-07-28T01:20:19.565Z,40.25
2022-07-28T01:23:03.199Z,40.57
2022-07-28T01:25:49.792Z,40.77
2022-07-28T01:28:28.520Z,40.82
2022-07-28T01:31:04.169Z,40.87
2022-07-28T01:33:36.662Z,40.86
2022-07-28T01:36:10.996Z,41.05
2022-07-28T01:38:40.865Z,41.07
2022-07-28T01:41:14.089Z,40.96
2022-07-28T01:43:47.222Z,40.93
2022-07-28T01:46:19.077Z,41.10
2022-07-28T01:48:49.151Z,41.11
2022-07-28T01:51:18.872Z,41.06
2022-07-28T01:53:49.398Z,41.28
2022-07-28T01:56:20.755Z,41.59
2022-07-28T01:58:53.479Z,41.78
2022-07-28T02:01:26.863Z,41.98
2022-07-28T02:03:58.030Z,42.12
2022-07-28T02:06:27.701Z,42.27
2022-07-28T02:08:57.824Z,42.52
2022-07-28T02:11:44.667Z,42.72
2022-07-28T02:14:17.876Z,42.59
2022-07-28T02:16:51.785Z,42.85
2022-07-28T02:19:22.747Z,43.00
2022-07-28T02:21:52.700Z,43.14
2022-07-28T02:24:26.677Z,42.99
2022-07-28T02:27:01.035Z,43.18
2022-07-28T02:29:50.415Z,42.92
2022-07-28T02:32:28.591Z,43.21
2022-07-28T02:35:02.679Z,43.17
2022-07-28T02:37:36.301Z,43.29
2022-07-28T02:40:07.992Z,43.58
2022-07-28T02:42:38.132Z,43.81
2022-07-28T02:45:10.350Z,44.18
2022-07-28T02:47:45.631Z,44.06
2022-07-28T02:50:18.134Z,43.86
2022-07-28T02:52:48.383Z,44.04
2022-07-28T02:55:19.100Z,44.13
2022-07-28T02:57:52.063Z,44.27
2022-07-28T03:00:25.869Z,44.42
2022-07-28T03:02:57.421Z,44.44
2022-07-28T03:05:26.995Z,44.55
2022-07-28T03:07:57.964Z,44.75
2022-07-28T03:10:34.244Z,44.70
2022-07-28T03:13:04.248Z,44.70
2022-07-28T03:15:33.530Z,44.37
2022-07-28T03:18:05.332Z,44.57
2022-07-28T03:20:35.099Z,44.45
2022-07-28T03:23:04.501Z,44.74
2022-07-28T03:25:40.823Z,44.86
2022-07-28T03:28:15.250Z,45.04
2022-07-28T03:30:49.831Z,45.27
2022-07-28T03:33:20.467Z,45.41
2022-07-28T03:35:53.159Z,45.57
2022-07-28T03:38:25.303Z,45.46
2022-07-28T03:40:55.680Z,45.69
2022-07-28T03:43:27.723Z,45.88
2022-07-28T03:45:57.096Z,45.83
2022-07-28T03:48:32.020Z,45.63
2022-07-28T03:51:02.534Z,45.90
2022-07-28T03:53:31.390Z,46.01
2022-07-28T03:56:00.168Z,46.18
2022-07-28T03:58:29.858Z,46.25
2022-07-28T04:00:59.592Z,46.13
2022-07-28T04:03:42.236Z,46.33
2022-07-28T04:06:15.524Z,46.42
2022-07-28T04:08:45.070Z,46.49
2022-07-28T04:11:14.161Z,46.93
2022-07-28T04:13:43.331Z,46.74
2022-07-28T04:16:12.171Z,46.81
2022-07-28T04:18:41.016Z,47.02
2022-07-28T04:21:09.837Z,46.79
2022-07-28T04:23:40.181Z,46.95
2022-07-28T04:26:09.048Z,47.40
2022-07-28T04:28:37.807Z,47.22
2022-07-28T04:31:06.663Z,47.20
2022-07-28T04:33:35.500Z,47.21
2022-07-28T04:36:04.435Z,47.23
2022-07-28T04:38:33.224Z,47.34
2022-07-28T04:41:03.679Z,47.19
2022-07-28T04:43:32.532Z,47.51
2022-07-28T04:46:01.461Z,47.56
2022-07-28T04:48:30.324Z,47.55
2022-07-28T04:50:59.208Z,47.66
2022-07-28T04:53:28.706Z,47.86
2022-07-28T04:55:57.781Z,47.94
2022-07-28T04:58:27.999Z,48.18
2022-07-28T05:00:59.956Z,48.16
2022-07-28T05:03:32.724Z,48.26
2022-07-28T05:06:05.258Z,48.39
2022-07-28T05:08:33.969Z,48.37
2022-07-28T05:11:02.861Z,48.29
2022-07-28T05:13:34.498Z,48.38
2022-07-28T05:16:03.983Z,48.46
2022-07-28T05:18:32.833Z,48.54
2022-07-28T05:21:01.792Z,48.67
2022-07-28T05:23:30.661Z,48.44
2022-07-28T05:25:59.623Z,48.16
2022-07-28T05:28:28.423Z,48.00
2022-07-28T05:30:58.937Z,47.81
2022-07-28T05:33:31.810Z,47.40
2022-07-28T05:36:01.008Z,47.31
2022-07-28T05:38:30.590Z,47.10
2022-07-28T05:41:00.157Z,46.82
2022-07-28T05:43:28.836Z,45.88
2022-07-28T05:45:59.276Z,45.33
2022-07-28T05:48:28.194Z,44.80
2022-07-28T05:50:57.048Z,44.79
2022-07-28T05:53:26.020Z,44.48
2022-07-28T05:55:59.746Z,43.82
2022-07-28T05:58:30.809Z,43.73
2022-07-28T06:01:05.088Z,43.70
2022-07-28T06:03:41.509Z,43.44
2022-07-28T06:06:15.637Z,43.04
2022-07-28T06:08:47.323Z,42.70
2022-07-28T06:11:22.245Z,42.42
2022-07-28T06:13:52.992Z,41.02
2022-07-28T06:16:24.206Z,39.48
2022-07-28T06:18:53.310Z,38.32
2022-07-28T06:21:25.353Z,37.18
2022-07-28T06:23:54.190Z,36.31
2022-07-28T06:26:23.771Z,35.62
2022-07-28T06:28:53.310Z,34.61
2022-07-28T06:31:23.633Z,33.03
2022-07-28T06:33:52.440Z,31.89
2022-07-28T06:36:21.248Z,31.50
2022-07-28T06:38:50.067Z,31.50
2022-07-28T06:41:19.925Z,29.53
2022-07-28T06:43:48.730Z,28.31
2022-07-28T06:46:19.769Z,27.89
2022-07-28T06:48:50.496Z,27.07
2022-07-28T06:51:20.442Z,26.60
2022-07-28T06:53:50.285Z,26.00
2022-07-28T06:56:21.417Z,25.64
2022-07-28T06:58:50.508Z,26.07
2022-07-28T07:01:19.312Z,26.02
2022-07-28T07:03:49.720Z,25.37
2022-07-28T07:06:18.605Z,24.73
2022-07-28T07:08:48.645Z,24.35
2022-07-28T07:11:17.639Z,24.22
2022-07-28T07:13:46.490Z,23.91
2022-07-28T07:16:15.705Z,22.90
2022-07-28T07:18:44.596Z,23.13
2022-07-28T07:21:14.895Z,23.25
2022-07-28T07:23:43.675Z,23.21
2022-07-28T07:26:14.111Z,22.67
2022-07-28T07:28:43.060Z,21.79
2022-07-28T07:31:12.022Z,21.96
2022-07-28T07:33:40.864Z,22.14
2022-07-28T07:36:09.763Z,21.32
2022-07-28T07:38:40.038Z,20.93
2022-07-28T07:41:09.015Z,20.45
2022-07-28T07:43:37.929Z,20.38
2022-07-28T07:46:08.580Z,19.79
2022-07-28T07:48:37.536Z,19.04
2022-07-28T07:51:10.717Z,18.32
2022-07-28T07:53:45.470Z,18.35
2022-07-28T07:56:14.866Z,18.44
2022-07-28T07:58:43.614Z,18.57
2022-07-28T08:01:13.813Z,18.62
2022-07-28T08:03:43.979Z,19.08
2022-07-28T08:06:13.049Z,19.13
2022-07-28T08:08:48.465Z,19.33
2022-07-28T08:11:17.598Z,19.41
2022-07-28T08:13:46.390Z,19.37
2022-07-28T08:16:15.376Z,19.07
2022-07-28T08:18:45.029Z,19.37
2022-07-28T08:21:14.907Z,19.61
2022-07-28T08:23:43.635Z,19.76
2022-07-28T08:26:13.912Z,19.79
2022-07-28T08:28:42.668Z,19.91
2022-07-28T08:31:11.977Z,20.02
2022-07-28T08:33:53.505Z,20.09
2022-07-28T08:36:23.665Z,20.29
2022-07-28T08:38:52.346Z,20.36
2022-07-28T08:41:33.820Z,20.45
2022-07-28T08:44:05.172Z,20.06
2022-07-28T08:46:37.758Z,20.15
2022-07-28T08:49:09.765Z,20.33
2022-07-28T08:51:39.587Z,20.37
2022-07-28T08:54:09.095Z,20.66
2022-07-28T08:56:47.710Z,20.66
2022-07-28T08:59:17.128Z,20.36
2022-07-28T09:01:47.185Z,20.72
2022-07-28T09:04:17.478Z,20.68
2022-07-28T09:06:47.017Z,20.28
2022-07-28T09:09:16.524Z,20.42
2022-07-28T09:11:46.775Z,20.31
2022-07-28T09:14:15.819Z,20.52
2022-07-28T09:16:44.953Z,20.01
2022-07-28T09:19:13.703Z,20.21
2022-07-28T09:21:44.650Z,20.51
2022-07-28T09:24:34.235Z,20.44
2022-07-28T09:27:08.122Z,20.54
2022-07-28T09:29:37.751Z,20.08
2022-07-28T09:32:07.816Z,20.31
2022-07-28T09:34:45.485Z,19.62
2022-07-28T09:37:24.943Z,19.48
2022-07-28T09:39:59.487Z,19.51
2022-07-28T09:42:47.260Z,19.16
2022-07-28T09:45:24.302Z,18.75
2022-07-28T09:48:11.315Z,19.07
2022-07-28T09:50:41.723Z,18.75
2022-07-28T09:53:23.173Z,18.79
2022-07-28T09:56:00.613Z,18.99
2022-07-28T09:58:32.682Z,19.03
2022-07-28T10:01:09.680Z,19.07
2022-07-28T10:03:43.099Z,19.12
2022-07-28T10:06:16.879Z,18.84
2022-07-28T10:08:48.053Z,18.98
2022-07-28T10:11:18.566Z,18.57
2022-07-28T10:13:57.305Z,18.60
2022-07-28T10:16:27.675Z,18.36
2022-07-28T10:18:57.490Z,18.35
2022-07-28T10:21:27.775Z,18.09
2022-07-28T10:23:58.254Z,18.36
2022-07-28T10:26:32.932Z,17.84
2022-07-28T10:29:07.532Z,17.79
2022-07-28T10:31:40.507Z,17.48
2022-07-28T10:34:16.070Z,18.03
2022-07-28T10:36:46.011Z,17.51
2022-07-28T10:39:19.920Z,17.81
2022-07-28T10:41:49.227Z,17.73
2022-07-28T10:44:21.200Z,17.51
2022-07-28T10:46:51.312Z,17.63
2022-07-28T10:49:21.410Z,17.04
2022-07-28T10:52:02.413Z,17.80
2022-07-28T10:54:44.623Z,16.89
2022-07-28T10:57:18.023Z,17.33
2022-07-28T11:00:12.914Z,16.62
2022-07-28T11:02:48.884Z,17.43
2022-07-28T11:05:41.913Z,17.13
2022-07-28T11:08:29.011Z,16.43
2022-07-28T11:11:07.460Z,17.16
2022-07-28T11:13:41.171Z,16.86
2022-07-28T11:16:22.883Z,17.62
2022-07-28T11:19:40.102Z,17.57
2022-07-28T11:22:25.187Z,17.41
2022-07-28T11:25:19.756Z,17.73
2022-07-28T11:28:08.283Z,18.02
2022-07-28T11:30:53.636Z,18.83
2022-07-28T11:33:25.227Z,18.61
2022-07-28T11:35:57.332Z,18.90
2022-07-28T11:38:26.214Z,18.89
2022-07-28T11:40:57.623Z,18.99
2022-07-28T11:43:38.888Z,19.16
2022-07-28T11:46:24.960Z,18.99
2022-07-28T11:49:25.242Z,19.06
2022-07-28T11:52:17.596Z,19.40
2022-07-28T11:54:56.728Z,19.62
2022-07-28T11:57:29.667Z,19.63
2022-07-28T12:00:01.154Z,19.60
2022-07-28T12:02:32.360Z,19.82
2022-07-28T12:05:09.637Z,19.75
2022-07-28T12:07:41.564Z,20.37
2022-07-28T12:13:29.213Z,20.38
2022-07-28T12:15:58.693Z,20.75
2022-07-28T12:18:27.581Z,20.80
2022-07-28T12:21:03.084Z,20.80
2022-07-28T12:23:45.897Z,20.30
2022-07-28T12:26:40.954Z,19.91
2022-07-28T12:29:13.797Z,20.02
2022-07-28T12:31:54.437Z,19.67
2022-07-28T12:34:28.907Z,19.94
2022-07-28T12:37:03.306Z,19.86
2022-07-28T12:39:34.617Z,19.51
2022-07-28T12:42:05.490Z,19.28
2022-07-28T12:44:35.860Z,19.27
2022-07-28T12:47:06.611Z,18.81
2022-07-28T12:49:36.748Z,18.76
2022-07-28T12:52:22.553Z,18.70
2022-07-28T12:54:54.934Z,19.03
2022-07-28T12:57:48.817Z,19.07
2022-07-28T13:00:23.619Z,19.29
2022-07-28T13:02:56.564Z,19.37
2022-07-28T13:05:33.067Z,19.29
2022-07-28T13:08:05.858Z,19.45
2022-07-28T13:10:35.063Z,19.35
2022-07-28T13:13:06.897Z,19.22
2022-07-28T13:15:35.851Z,19.22
2022-07-28T13:18:05.283Z,19.16
2022-07-28T13:20:48.968Z,19.18
2022-07-28T13:23:19.518Z,19.21
2022-07-28T13:25:48.454Z,19.24
2022-07-28T13:28:28.027Z,19.26
2022-07-28T13:30:57.291Z,19.23
2022-07-28T13:33:27.170Z,19.16
2022-07-28T13:35:57.431Z,19.29
2022-07-28T13:38:27.732Z,19.57
2022-07-28T13:40:56.613Z,20.06
2022-07-28T13:43:35.711Z,20.15
2022-07-28T13:46:05.570Z,20.05
2022-07-28T13:48:36.167Z,20.33
2022-07-28T13:51:05.199Z,20.30
2022-07-28T13:53:39.467Z,21.59
2022-07-28T13:56:09.515Z,21.90
2022-07-28T13:58:38.902Z,22.32
2022-07-28T14:01:12.652Z,21.32
2022-07-28T14:03:57.841Z,22.08
2022-07-28T14:06:27.206Z,21.86
2022-07-28T14:08:57.819Z,22.51
2022-07-28T14:11:27.301Z,22.58
2022-07-28T14:13:56.290Z,23.69
2022-07-28T14:16:25.572Z,24.14
2022-07-28T14:18:54.468Z,23.83
2022-07-28T14:21:23.655Z,23.99
2022-07-28T14:23:52.549Z,23.17
2022-07-28T14:26:35.317Z,23.42
2022-07-28T14:29:11.787Z,24.64
2022-07-28T14:31:40.900Z,24.07
2022-07-28T14:34:10.424Z,23.58
2022-07-28T14:36:39.440Z,24.04
2022-07-28T14:39:12.464Z,24.82
2022-07-28T14:41:44.613Z,25.72
2022-07-28T14:44:15.412Z,27.32
2022-07-28T14:46:52.821Z,28.17
2022-07-28T14:49:21.699Z,29.17
2022-07-28T14:51:50.721Z,31.33
2022-07-28T14:54:19.658Z,32.71
2022-07-28T14:56:50.098Z,31.91
2022-07-28T14:59:18.899Z,31.62
2022-07-28T15:01:48.874Z,30.75
2022-07-28T15:04:18.545Z,31.04
2022-07-28T15:06:48.302Z,30.22
2022-07-28T15:09:17.435Z,30.08
2022-07-28T15:11:47.568Z,28.98
2022-07-28T15:14:21.141Z,28.84
2022-07-28T15:16:51.751Z,27.84
2022-07-28T15:19:20.509Z,26.84
2022-07-28T15:21:49.332Z,26.35
2022-07-28T15:24:19.561Z,25.72
2022-07-28T15:26:48.424Z,25.07
2022-07-28T15:29:19.971Z,24.47
2022-07-28T15:31:50.532Z,24.96
2022-07-28T15:34:19.752Z,24.90
2022-07-28T15:36:48.930Z,25.19
2022-07-28T15:39:17.767Z,24.87
2022-07-28T15:41:47.627Z,25.13
2022-07-28T15:44:22.389Z,24.90
2022-07-28T15:46:55.289Z,25.00
2022-07-28T15:49:24.196Z,25.00
2022-07-28T15:51:53.028Z,24.69
2022-07-28T15:54:21.784Z,25.25
2022-07-28T15:56:50.581Z,25.08
2022-07-28T15:59:20.724Z,25.19
2022-07-28T16:01:49.570Z,24.79
2022-07-28T16:04:18.853Z,24.35
2022-07-28T16:07:05.236Z,24.73
2022-07-28T16:09:46.429Z,24.15
2022-07-28T16:12:15.975Z,24.41
2022-07-28T16:14:46.654Z,23.73
2022-07-28T16:17:15.766Z,24.04
2022-07-28T16:19:49.899Z,23.77
2022-07-28T16:22:20.271Z,23.80
2022-07-28T16:24:51.024Z,23.90
2022-07-28T16:27:19.847Z,24.49
2022-07-28T16:29:51.088Z,24.41
2022-07-28T16:32:19.961Z,23.97
2022-07-28T16:34:49.405Z,24.39
2022-07-28T16:37:19.782Z,24.29
2022-07-28T16:39:49.559Z,24.86
2022-07-28T16:42:18.616Z,24.30
2022-07-28T16:44:48.915Z,23.91
2022-07-28T16:47:19.388Z,24.39
2022-07-28T16:49:48.175Z,24.88
2022-07-28T16:52:17.194Z,25.12
2022-07-28T16:54:45.951Z,24.68
2022-07-28T16:57:16.533Z,24.59
2022-07-28T16:59:48.491Z,24.67
2022-07-28T17:02:20.268Z,24.93
2022-07-28T17:04:49.373Z,24.80
2022-07-28T17:07:18.732Z,24.43
2022-07-28T17:09:47.602Z,24.33
2022-07-28T17:12:16.394Z,24.47
2022-07-28T17:14:45.189Z,24.89
2022-07-28T17:17:13.962Z,24.50
2022-07-28T17:19:46.611Z,24.69
2022-07-28T17:22:16.228Z,24.86
2022-07-28T17:24:44.903Z,25.01
2022-07-28T17:30:02.650Z,25.24
2022-07-28T17:32:31.539Z,25.59
2022-07-28T17:35:01.935Z,25.56
2022-07-28T17:37:31.694Z,25.29
2022-07-28T17:40:01.240Z,25.69
2022-07-28T17:42:34.827Z,25.94
2022-07-28T17:45:03.630Z,26.03
2022-07-28T17:47:36.179Z,26.22
2022-07-28T17:50:10.028Z,26.14
2022-07-28T17:52:38.828Z,26.35
2022-07-28T17:55:25.880Z,26.03
2022-07-28T17:57:57.122Z,26.42
2022-07-28T18:00:25.845Z,26.21
2022-07-28T18:02:54.646Z,26.18
2022-07-28T18:05:24.830Z,26.30
2022-07-28T18:07:59.088Z,26.96
2022-07-28T18:10:28.361Z,27.18
2022-07-28T18:12:57.255Z,27.02
2022-07-28T18:15:26.081Z,27.02
2022-07-28T18:17:56.168Z,27.22
2022-07-28T18:20:26.759Z,27.32
2022-07-28T18:22:57.563Z,27.70
2022-07-28T18:25:26.704Z,27.75
2022-07-28T18:27:55.576Z,27.85
2022-07-28T18:30:25.055Z,28.25
2022-07-28T18:32:54.183Z,28.35
2022-07-28T18:35:24.132Z,28.41
2022-07-28T18:37:54.431Z,28.51
2022-07-28T18:40:24.148Z,28.72
2022-07-28T18:42:53.300Z,28.56
2022-07-28T18:45:22.139Z,28.88
2022-07-28T18:47:53.405Z,28.94
2022-07-28T18:50:27.877Z,29.09
2022-07-28T18:53:02.069Z,29.19
2022-07-28T18:55:30.938Z,29.15
2022-07-28T18:58:00.726Z,29.60
2022-07-28T19:00:29.494Z,29.99
2022-07-28T19:02:58.381Z,30.33
2022-07-28T19:05:27.358Z,30.25
2022-07-28T19:08:07.599Z,30.32
2022-07-28T19:10:36.864Z,30.19
2022-07-28T19:13:05.855Z,30.48
2022-07-28T19:15:41.417Z,30.53
2022-07-28T19:18:12.046Z,30.67
2022-07-28T19:20:41.669Z,31.02
2022-07-28T19:23:14.129Z,31.28
2022-07-28T19:25:45.153Z,31.26
2022-07-28T19:28:14.099Z,31.34
2022-07-28T19:30:44.018Z,31.93
2022-07-28T19:33:18.644Z,31.82
2022-07-28T19:35:48.023Z,32.02
2022-07-28T19:38:18.209Z,31.71
2022-07-28T19:40:47.159Z,31.55
2022-07-28T19:43:15.870Z,31.63
2022-07-28T19:45:44.818Z,32.19
2022-07-28T19:48:13.628Z,32.50
2022-07-28T19:50:49.963Z,32.82
2022-07-28T19:53:25.061Z,32.95
2022-07-28T19:55:55.131Z,33.16
2022-07-28T19:58:24.665Z,33.20
2022-07-28T20:00:54.029Z,33.48
2022-07-28T20:04:00.966Z,33.60
2022-07-28T20:06:14.684Z,33.74
2022-07-28T20:08:44.910Z,33.96
2022-07-28T20:11:14.882Z,34.09
2022-07-28T20:13:43.700Z,34.00
2022-07-28T20:16:12.540Z,34.13
2022-07-28T20:18:41.282Z,34.58
2022-07-28T20:21:10.305Z,35.40
2022-07-28T20:23:41.147Z,35.33
2022-07-28T20:26:11.455Z,35.56
2022-07-28T20:28:40.218Z,35.73
2022-07-28T20:31:13.576Z,36.29
2022-07-28T20:33:45.264Z,36.63
2022-07-28T20:36:14.084Z,36.86
2022-07-28T20:38:42.840Z,36.99
2022-07-28T20:41:13.262Z,36.96
2022-07-28T20:43:42.157Z,37.45
2022-07-28T20:46:11.005Z,37.54
2022-07-28T20:48:39.988Z,37.53
2022-07-28T20:51:08.763Z,37.58
2022-07-28T20:53:37.647Z,37.84
2022-07-28T20:56:06.999Z,37.90
2022-07-28T20:58:37.416Z,37.99
2022-07-28T21:01:06.302Z,38.00
2022-07-28T21:03:35.259Z,38.16
2022-07-28T21:06:04.043Z,38.57
2022-07-28T21:08:33.169Z,38.75
2022-07-28T21:11:02.048Z,38.60
2022-07-28T21:13:31.703Z,39.18
2022-07-28T21:16:01.966Z,39.11
2022-07-28T21:18:30.727Z,39.27
2022-07-28T21:20:59.719Z,39.30
2022-07-28T21:23:28.506Z,39.50
2022-07-28T21:25:57.357Z,39.54
2022-07-28T21:28:43.383Z,39.44
2022-07-28T21:31:13.719Z,39.53
2022-07-28T21:33:42.499Z,39.46
2022-07-28T21:36:11.356Z,39.46
2022-07-28T21:38:40.143Z,39.38
2022-07-28T21:41:09.205Z,39.31
2022-07-28T21:43:37.999Z,39.49
2022-07-28T21:46:06.911Z,39.58
2022-07-28T21:48:37.212Z,39.78
2022-07-28T21:51:16.792Z,39.96
2022-07-28T21:53:51.493Z,39.97
2022-07-28T21:56:21.036Z,40.15
2022-07-28T21:58:49.849Z,40.13
2022-07-28T22:01:19.448Z,39.70
2022-07-28T22:03:49.992Z,39.99
2022-07-28T22:06:18.879Z,40.13
2022-07-28T22:08:50.335Z,40.32
2022-07-28T22:11:19.392Z,40.29
2022-07-28T22:13:48.208Z,40.54
2022-07-28T22:16:17.215Z,40.87
2022-07-28T22:18:46.116Z,40.46
2022-07-28T22:21:16.548Z,40.00
2022-07-28T22:23:45.320Z,40.25
2022-07-28T22:26:14.146Z,40.70
2022-07-28T22:28:42.971Z,41.17
2022-07-28T22:31:11.776Z,41.17
2022-07-28T22:33:40.670Z,41.52
2022-07-28T22:36:10.834Z,41.10
2022-07-28T22:38:41.418Z,41.62
2022-07-28T22:41:11.259Z,41.15
2022-07-28T22:43:39.991Z,41.29
2022-07-28T22:46:11.001Z,40.92
2022-07-28T22:48:41.087Z,40.88
2022-07-28T22:51:12.034Z,41.22
2022-07-28T22:53:42.715Z,41.21
2022-07-28T22:56:12.116Z,41.49
2022-07-28T22:58:41.351Z,41.95
2022-07-28T23:01:10.242Z,41.67
2022-07-28T23:03:39.521Z,41.91
2022-07-28T23:06:08.686Z,42.54
2022-07-28T23:08:37.753Z,42.46
2022-07-28T23:11:08.246Z,42.61
2022-07-28T23:13:37.121Z,42.87
2022-07-28T23:16:08.531Z,43.46
2022-07-28T23:18:39.744Z,43.77
2022-07-28T23:21:08.802Z,43.85
2022-07-28T23:23:37.825Z,44.04
2022-07-28T23:26:08.152Z,44.16
2022-07-28T23:28:40.745Z,44.15
2022-07-28T23:31:09.601Z,44.20
2022-07-28T23:33:54.283Z,43.87
2022-07-28T23:36:26.898Z,43.83
2022-07-28T23:38:57.794Z,44.07
2022-07-28T23:41:29.113Z,44.25
2022-07-28T23:43:57.995Z,44.10
2022-07-28T23:46:26.783Z,43.92
2022-07-28T23:48:55.760Z,43.89
2022-07-28T23:51:39.246Z,43.86
2022-07-28T23:54:15.753Z,43.98
2022-07-28T23:56:46.331Z,44.54
2022-07-28T23:59:15.138Z,44.29
